首页
METAR-TAF:

METAR-TAF

机场 :

华沙肖邦机场

华沙, 波兰

纬度: 52-10N, 经度: 020-58E, 海拔: 106米

当前天气观测

该预报发布于28分钟前的12:00 UTC
风速4节,风向,在北转西北之间变化
温度 24°C
湿度 50%
气压 1020 hPa
能见度10公里或以上
散云层高于4600英尺

METAR: EPWA 161200Z 01004KT 340V090 9999 SCT046 24/13 Q1020 NOSIG

时间: 14:28 (12:28 UTC)

预报

该预报发布于58分钟前的11:30 UTC
预报有效从16日的 12点(UTC)到 17日的 12点(UTC)
风速4节,风向多变
能见度10公里或以上
散云层高于4000英尺

TAF: EPWA 161130Z 1612/1712 VRB04KT 9999 SCT040

超过4000个机场的气象观测和天气预报(METAR&TAF报告)。

可查询的气象台以黄色和红色小点在地图上表示。

将鼠标移到小点上方,可查看气象台名称。

然后点击查看天气观测和预报。

如需切换地图:点击带黑十字的绿色按钮放大地图;点击带横线的绿色按钮缩小地图;或者点击绿色箭头查看邻近地区的地图。


METAR-TAF: